Time;durP1;ratioP1;P1;durP2;ratioP2;P2;SDS_P1;SDS_P2;PMS_P1;PMS_P2;Temp;Humidity;BMP_temperature;BMP_pressure;BME280_temperature;BME280_humidity;BME280_pressure;Samples;Min_cycle;Max_cycle;Signal;HPM_P1;HPM_P2
2021/10/21 00:01:37;;;;;;;10.80;7.40;;;;;;;14.21;55.01;98158.46;236654;1192;138791;-64
2021/10/21 00:06:40;;;;;;;15.10;6.90;;;;;;;14.15;54.76;98147.46;236284;1193;138634;-64
2021/10/21 00:11:43;;;;;;;10.50;6.70;;;;;;;14.09;54.90;98135.80;236512;1193;140748;-62
2021/10/21 00:16:46;;;;;;;12.50;7.00;;;;;;;14.10;54.91;98133.42;236354;1193;139181;-61
2021/10/21 00:21:50;;;;;;;13.70;7.20;;;;;;;14.07;55.09;98138.50;236469;1187;138970;-62
2021/10/21 00:26:53;;;;;;;15.20;8.50;;;;;;;13.97;54.97;98137.63;236747;1193;138666;-62
2021/10/21 00:31:56;;;;;;;10.90;6.60;;;;;;;13.90;55.45;98126.69;236634;1193;139013;-63
2021/10/21 00:36:59;;;;;;;10.30;6.70;;;;;;;13.81;55.59;98119.98;236768;1193;138075;-62
2021/10/21 00:42:02;;;;;;;12.50;7.00;;;;;;;13.74;55.75;98108.19;236592;1193;138524;-63
2021/10/21 00:47:05;;;;;;;13.60;6.70;;;;;;;13.67;55.80;98103.81;236603;1193;138721;-63
2021/10/21 00:52:08;;;;;;;12.20;7.00;;;;;;;13.62;56.06;98098.55;236405;1193;138678;-64
2021/10/21 00:57:14;;;;;;;11.30;7.30;;;;;;;13.61;56.09;98104.18;236548;1193;138652;-63
2021/10/21 01:02:17;;;;;;;11.20;7.00;;;;;;;13.55;56.13;98105.23;236164;1193;138478;-63
2021/10/21 01:07:20;;;;;;;11.90;6.80;;;;;;;13.46;56.50;98099.09;236544;1193;138387;-61
2021/10/21 01:12:23;;;;;;;11.70;7.00;;;;;;;13.38;56.50;98088.39;236588;1193;138597;-62
2021/10/21 01:17:26;;;;;;;13.20;7.00;;;;;;;13.28;56.71;98078.45;236535;1193;138864;-62
2021/10/21 01:22:29;;;;;;;11.30;6.90;;;;;;;13.21;56.77;98073.58;236655;1193;138429;-61
2021/10/21 01:27:32;;;;;;;10.80;7.30;;;;;;;13.15;57.10;98063.13;236652;1192;139181;-61
2021/10/21 01:32:36;;;;;;;14.10;8.10;;;;;;;13.06;57.41;98052.38;236661;1193;138704;-58
2021/10/21 01:37:39;;;;;;;10.60;7.00;;;;;;;12.98;57.55;98044.81;236395;1193;138276;-63
2021/10/21 01:42:43;;;;;;;13.70;7.20;;;;;;;12.88;57.41;98039.50;236648;1193;139171;-60
2021/10/21 01:47:47;;;;;;;12.80;7.60;;;;;;;12.83;57.61;98033.34;236561;1192;138690;-61
2021/10/21 01:52:51;;;;;;;13.20;8.10;;;;;;;12.86;57.74;98024.21;236764;1193;138851;-62
2021/10/21 01:57:54;;;;;;;11.40;7.40;;;;;;;12.87;57.93;98025.15;236311;1193;138646;-61
2021/10/21 02:02:57;;;;;;;18.60;8.10;;;;;;;12.89;58.05;98023.02;236122;1193;138526;-63
2021/10/21 02:08:00;;;;;;;13.70;7.70;;;;;;;12.91;58.02;98016.06;235736;1193;138305;-64
2021/10/21 02:13:05;;;;;;;14.00;7.40;;;;;;;12.90;58.11;98011.87;236511;1192;139272;-64
2021/10/21 02:18:08;;;;;;;14.40;8.40;;;;;;;12.84;57.97;98007.45;236291;1193;138194;-63
2021/10/21 02:23:11;;;;;;;12.00;7.90;;;;;;;12.80;58.19;97995.56;236584;1193;138636;-63
2021/10/21 02:28:14;;;;;;;11.60;7.90;;;;;;;12.73;58.35;97986.73;236689;1193;138649;-64
2021/10/21 02:33:17;;;;;;;13.50;7.90;;;;;;;12.68;58.38;97989.32;236600;1193;138739;-63
2021/10/21 02:38:20;;;;;;;15.50;8.40;;;;;;;12.65;58.47;97982.42;236325;1193;139107;-63
2021/10/21 02:43:24;;;;;;;19.30;8.20;;;;;;;12.58;58.40;97982.21;236600;1193;139661;-64
2021/10/21 02:48:27;;;;;;;16.60;7.70;;;;;;;12.50;58.55;97975.52;236600;1193;138235;-62
2021/10/21 02:53:31;;;;;;;13.50;8.10;;;;;;;12.43;58.79;97958.93;236673;1193;138934;-61
2021/10/21 02:58:34;;;;;;;15.60;8.40;;;;;;;12.39;58.86;97954.48;236613;1193;138556;-63
2021/10/21 03:03:37;;;;;;;12.70;7.70;;;;;;;12.34;59.01;97949.23;236876;1193;138809;-63
2021/10/21 03:08:40;;;;;;;11.50;7.50;;;;;;;12.35;59.29;97944.48;236622;1193;139187;-64
2021/10/21 03:13:43;;;;;;;16.70;9.00;;;;;;;12.33;59.33;97941.28;236402;1193;139688;-61
2021/10/21 03:18:46;;;;;;;16.00;9.10;;;;;;;12.32;59.41;97937.42;236644;1193;139770;-61
2021/10/21 03:23:49;;;;;;;15.00;8.90;;;;;;;12.29;59.58;97935.02;236575;1193;138643;-63
2021/10/21 03:28:52;;;;;;;16.90;9.40;;;;;;;12.27;59.76;97933.05;236609;1187;138972;-60
2021/10/21 03:33:56;;;;;;;18.00;9.20;;;;;;;12.21;59.47;97931.26;236380;1193;138714;-61
2021/10/21 03:38:59;;;;;;;17.50;8.90;;;;;;;12.15;59.53;97922.35;236750;1192;138751;-61
2021/10/21 03:44:02;;;;;;;14.70;9.00;;;;;;;12.10;59.60;97916.28;236889;1193;139011;-61
2021/10/21 03:49:06;;;;;;;15.00;8.90;;;;;;;12.03;59.75;97912.91;236414;1193;139058;-62
2021/10/21 03:54:13;;;;;;;15.70;8.50;;;;;;;11.97;59.94;97902.44;236445;1193;138521;-61
2021/10/21 03:59:16;;;;;;;40.20;27.00;;;;;;;11.96;60.23;97902.33;236592;1193;138586;-61
2021/10/21 04:04:19;;;;;;;53.50;36.50;;;;;;;11.96;60.21;97894.20;236042;1193;140850;-64
2021/10/21 04:09:22;;;;;;;60.20;34.30;;;;;;;12.04;60.52;97893.47;236304;1193;138678;-63
2021/10/21 04:14:25;;;;;;;17.20;9.00;;;;;;;12.04;60.38;97876.92;236466;1193;139827;-60
2021/10/21 04:19:32;;;;;;;364.10;231.50;;;;;;;12.02;60.25;97876.92;236527;1193;139806;-61
2021/10/21 04:24:35;;;;;;;23.30;10.00;;;;;;;12.01;60.64;97869.02;236605;1193;140392;-63
2021/10/21 04:29:39;;;;;;;20.70;10.20;;;;;;;12.02;60.66;97862.15;236533;1193;139215;-63
2021/10/21 04:34:42;;;;;;;17.90;10.10;;;;;;;12.00;60.47;97854.52;236750;1193;138728;-61
2021/10/21 04:39:45;;;;;;;18.80;11.00;;;;;;;12.00;60.68;97845.08;236693;1192;139766;-63
2021/10/21 04:44:49;;;;;;;17.30;9.10;;;;;;;11.95;60.82;97840.60;236871;1192;140818;-63
2021/10/21 04:49:52;;;;;;;17.80;9.30;;;;;;;11.84;60.52;97833.65;236248;1193;138754;-62
2021/10/21 04:54:55;;;;;;;16.70;9.00;;;;;;;11.76;60.64;97824.39;236410;1193;138580;-62
2021/10/21 04:59:58;;;;;;;15.70;9.40;;;;;;;11.71;60.73;97813.98;236562;1193;139457;-61
2021/10/21 05:05:01;;;;;;;13.90;9.10;;;;;;;11.63;61.12;97801.88;236530;1193;138442;-62
2021/10/21 05:10:05;;;;;;;15.40;8.60;;;;;;;11.57;60.93;97791.94;236412;1193;138588;-62
2021/10/21 05:15:09;;;;;;;16.10;8.20;;;;;;;11.58;61.09;97776.26;236531;1194;139132;-63
2021/10/21 05:20:12;;;;;;;14.20;9.20;;;;;;;11.57;61.16;97772.92;236530;1194;140951;-63
2021/10/21 05:25:15;;;;;;;14.70;9.30;;;;;;;11.58;61.11;97768.07;236419;1193;138770;-63
2021/10/21 05:30:18;;;;;;;21.20;10.60;;;;;;;11.63;61.27;97765.48;236421;1193;138518;-62
2021/10/21 05:35:21;;;;;;;20.90;11.30;;;;;;;11.68;61.13;97762.95;235919;1194;139696;-62
2021/10/21 05:40:26;;;;;;;19.70;10.50;;;;;;;11.68;61.06;97758.63;236569;1194;138866;-63
2021/10/21 05:45:29;;;;;;;27.20;10.80;;;;;;;11.64;61.10;97751.00;236556;1194;139967;-61
2021/10/21 05:50:32;;;;;;;26.10;11.60;;;;;;;11.57;61.47;97735.41;236558;1193;138542;-63
2021/10/21 05:55:36;;;;;;;26.10;11.60;;;;;;;11.54;61.60;97724.84;236618;1193;140105;-63
2021/10/21 06:00:39;;;;;;;29.70;11.00;;;;;;;11.51;61.89;97722.25;236283;1193;139239;-63
2021/10/21 06:05:42;;;;;;;23.60;10.20;;;;;;;11.51;61.78;97726.91;236482;1194;138767;-62
2021/10/21 06:10:45;;;;;;;23.30;9.50;;;;;;;11.53;62.14;97718.56;236587;1193;139987;-62
2021/10/21 06:15:48;;;;;;;20.60;11.10;;;;;;;11.59;62.14;97715.76;236297;1194;139812;-60
2021/10/21 06:20:51;;;;;;;21.70;11.10;;;;;;;11.63;62.36;97705.24;236032;1194;139283;-61
2021/10/21 06:25:55;;;;;;;32.40;11.80;;;;;;;11.67;62.32;97692.80;236563;1193;138404;-62
2021/10/21 06:31:03;;;;;;;34.40;12.40;;;;;;;11.71;62.40;97685.56;236573;1193;139299;-61
2021/10/21 06:36:06;;;;;;;39.50;12.80;;;;;;;11.74;62.30;97680.87;236443;1194;138782;-60
2021/10/21 06:41:09;;;;;;;33.60;12.70;;;;;;;11.77;62.74;97664.89;236591;1193;139415;-62
2021/10/21 06:46:12;;;;;;;38.10;13.50;;;;;;;11.81;62.33;97664.75;236736;1193;140043;-61
2021/10/21 06:51:16;;;;;;;40.60;15.20;;;;;;;11.86;62.57;97668.81;236470;1193;139009;-63
2021/10/21 06:56:19;;;;;;;39.90;15.10;;;;;;;11.92;62.63;97665.43;236199;1194;138638;-61
2021/10/21 07:01:22;;;;;;;33.70;14.00;;;;;;;11.98;62.64;97656.13;236017;1193;138400;-60
2021/10/21 07:06:25;;;;;;;37.80;14.00;;;;;;;12.09;62.89;97640.77;236098;1194;139225;-61
2021/10/21 07:11:30;;;;;;;44.50;16.00;;;;;;;12.27;63.00;97625.45;236122;1193;139113;-62
2021/10/21 07:16:33;;;;;;;32.20;14.20;;;;;;;12.48;63.15;97608.91;236530;1193;138561;-61
2021/10/21 07:21:36;;;;;;;26.40;13.30;;;;;;;12.80;63.01;97588.11;236434;1193;139127;-59
2021/10/21 07:26:41;;;;;;;27.00;13.00;;;;;;;13.18;62.59;97585.25;236623;1193;138637;-60
2021/10/21 07:31:44;;;;;;;24.20;13.10;;;;;;;13.46;62.10;97570.60;236524;1193;139004;-63
2021/10/21 07:36:48;;;;;;;20.40;12.80;;;;;;;13.75;61.72;97585.96;236299;1194;138468;-62
2021/10/21 07:41:52;;;;;;;20.30;11.60;;;;;;;14.00;61.45;97585.58;235769;1195;139114;-60
2021/10/21 07:46:55;;;;;;;16.20;10.50;;;;;;;14.26;60.97;97599.98;236482;1194;139573;-60
2021/10/21 07:51:59;;;;;;;19.80;10.90;;;;;;;14.46;60.88;97601.55;236219;1193;139657;-62
2021/10/21 07:57:04;;;;;;;25.20;12.00;;;;;;;14.70;60.34;97606.11;236170;1195;164885;-62
2021/10/21 08:02:08;;;;;;;18.60;11.00;;;;;;;14.89;60.31;97613.61;236141;1193;139274;-62
2021/10/21 08:07:11;;;;;;;19.10;10.70;;;;;;;15.06;59.94;97601.89;236572;1193;139534;-60
2021/10/21 08:12:14;;;;;;;19.50;10.40;;;;;;;15.22;59.54;97574.41;236143;1193;139252;-63
2021/10/21 08:17:17;;;;;;;21.80;10.90;;;;;;;15.40;59.48;97547.55;236682;1193;139258;-64
2021/10/21 08:22:20;;;;;;;18.30;10.50;;;;;;;15.58;58.99;97542.90;236583;1193;141300;-60
2021/10/21 08:27:23;;;;;;;15.50;10.60;;;;;;;15.74;58.79;97533.92;236576;1193;139300;-60
2021/10/21 08:32:27;;;;;;;17.70;9.70;;;;;;;15.91;58.63;97542.33;236605;1193;139526;-61
2021/10/21 08:37:30;;;;;;;16.30;10.30;;;;;;;16.07;58.60;97554.09;236811;1193;139552;-60
2021/10/21 08:42:33;;;;;;;21.90;10.00;;;;;;;16.25;58.30;97557.02;236459;1187;141218;-60
2021/10/21 08:47:42;;;;;;;15.10;9.50;;;;;;;16.41;58.05;97578.41;236556;1193;139655;-62
2021/10/21 08:52:45;;;;;;;19.70;9.30;;;;;;;16.58;57.71;97591.23;236906;1193;138907;-60
2021/10/21 08:57:49;;;;;;;16.00;9.70;;;;;;;16.73;57.55;97587.66;236666;1193;138829;-62
2021/10/21 09:02:57;;;;;;;13.60;8.90;;;;;;;16.89;57.11;97605.33;236512;1193;139334;-63
2021/10/21 09:08:11;;;;;;;14.60;8.40;;;;;;;17.01;56.82;97611.02;236701;1193;139036;-60
2021/10/21 09:13:28;;;;;;;20.40;8.80;;;;;;;17.15;56.49;97619.12;236097;1193;139687;-61
2021/10/21 09:18:43;;;;;;;81.00;52.00;;;;;;;17.30;56.53;97630.51;236471;1193;139142;-62
2021/10/21 09:23:46;;;;;;;19.90;10.90;;;;;;;17.54;56.39;97646.65;236426;1193;138740;-64
2021/10/21 09:28:49;;;;;;;17.60;8.20;;;;;;;17.73;56.26;97654.73;236312;1193;138622;-61
2021/10/21 09:33:56;;;;;;;12.70;7.50;;;;;;;17.90;55.86;97660.09;236472;1193;143376;-62
2021/10/21 09:38:59;;;;;;;10.30;7.30;;;;;;;18.03;55.62;97656.18;236411;1193;139990;-59
2021/10/21 09:44:23;;;;;;;11.80;8.00;;;;;;;18.10;55.24;97642.02;236107;1193;139038;-63
2021/10/21 09:49:33;;;;;;;11.60;7.40;;;;;;;18.13;55.20;97629.44;236448;1193;138284;-63
2021/10/21 09:54:38;;;;;;;9.00;7.30;;;;;;;18.21;55.00;97619.26;236373;1193;138122;-64
2021/10/21 10:00:07;;;;;;;9.20;7.00;;;;;;;18.27;54.74;97625.15;236300;1193;138731;-63
2021/10/21 10:05:16;;;;;;;11.40;7.50;;;;;;;18.30;54.58;97629.53;236256;1195;138548;-64
2021/10/21 10:10:19;;;;;;;17.70;8.40;;;;;;;18.28;54.47;97640.94;236630;1192;138685;-63
2021/10/21 10:15:23;;;;;;;11.60;8.00;;;;;;;18.29;54.58;97640.17;236478;1193;138483;-64
2021/10/21 10:20:27;;;;;;;13.60;9.30;;;;;;;18.35;54.57;97651.18;236581;1193;140564;-64
2021/10/21 10:25:30;;;;;;;14.40;8.00;;;;;;;18.38;54.70;97666.98;236563;1187;138950;-64
2021/10/21 10:30:52;;;;;;;15.80;8.40;;;;;;;18.40;54.40;97671.89;236437;1193;139042;-60
2021/10/21 10:36:26;;;;;;;14.60;8.40;;;;;;;18.41;54.36;97671.15;236569;1187;138741;-64
2021/10/21 10:41:42;;;;;;;12.70;9.10;;;;;;;18.42;54.44;97679.95;236668;1193;139577;-64
2021/10/21 10:46:52;;;;;;;12.30;8.70;;;;;;;18.44;54.18;97681.17;236300;1193;138936;-64
2021/10/21 10:51:58;;;;;;;13.70;9.00;;;;;;;18.40;53.92;97699.27;236322;1193;139064;-64
2021/10/21 10:57:01;;;;;;;;;;;;;;;18.34;53.99;97704.46;236269;1193;138642;-65
2021/10/21 11:02:22;;;;;;;14.50;8.80;;;;;;;18.25;53.98;97703.12;236697;1193;125035;-63
2021/10/21 11:07:41;;;;;;;14.60;9.50;;;;;;;18.25;54.21;97694.90;236575;1193;138662;-61
2021/10/21 11:12:48;;;;;;;16.50;8.80;;;;;;;18.20;54.10;97714.66;236282;1193;141334;-61
2021/10/21 11:17:52;;;;;;;37.40;21.50;;;;;;;18.16;53.93;97727.70;236461;1193;138482;-60
2021/10/21 11:23:02;;;;;;;14.60;6.00;;;;;;;18.12;53.57;97741.08;235854;1193;139097;-60
2021/10/21 11:28:06;;;;;;;7.60;4.90;;;;;;;17.98;53.02;97740.50;236247;1194;138829;-62
2021/10/21 11:33:10;;;;;;;11.00;5.30;;;;;;;17.80;52.78;97710.64;236520;1193;138910;-61
2021/10/21 11:38:15;;;;;;;11.00;5.30;;;;;;;17.64;52.76;97708.59;236465;1193;139214;-60
2021/10/21 11:43:22;;;;;;;6.60;4.70;;;;;;;17.52;52.89;97718.91;236506;1193;138754;-61
2021/10/21 11:48:37;;;;;;;7.50;4.80;;;;;;;17.43;52.88;97706.35;236447;1193;138517;-63
2021/10/21 11:53:40;;;;;;;10.50;4.90;;;;;;;17.39;53.17;97679.51;236522;1193;138961;-62
2021/10/21 11:58:46;;;;;;;7.30;4.60;;;;;;;17.41;53.36;97663.48;236650;1193;138703;-61
2021/10/21 12:03:51;;;;;;;6.60;5.10;;;;;;;17.42;53.17;97654.10;236518;1193;138483;-63
2021/10/21 12:08:59;;;;;;;10.60;5.50;;;;;;;17.41;53.23;97648.05;236700;1193;139892;-64
2021/10/21 12:14:02;;;;;;;13.90;6.00;;;;;;;17.40;53.14;97656.85;236794;1193;138653;-63
2021/10/21 12:19:09;;;;;;;8.20;4.80;;;;;;;17.43;53.25;97658.85;236613;1193;138853;-62
2021/10/21 12:24:26;;;;;;;8.30;4.20;;;;;;;17.38;53.13;97654.66;236649;1193;138584;-62
2021/10/21 12:29:42;;;;;;;8.20;4.10;;;;;;;17.31;53.00;97657.79;236596;1193;138562;-63
2021/10/21 12:34:50;;;;;;;7.30;4.20;;;;;;;17.25;53.03;97660.44;236789;1193;138459;-61
2021/10/21 12:40:10;;;;;;;7.10;4.00;;;;;;;17.24;52.99;97660.50;236731;1192;138305;-63
2021/10/21 12:45:21;;;;;;;10.00;4.40;;;;;;;17.24;52.94;97649.24;236607;1193;140450;-62
2021/10/21 12:50:25;;;;;;;8.60;4.00;;;;;;;17.24;52.77;97652.44;236620;1193;139063;-64
2021/10/21 12:55:33;;;;;;;6.20;4.00;;;;;;;17.26;52.64;97654.55;236558;1193;139549;-63
2021/10/21 13:00:49;;;;;;;6.90;3.70;;;;;;;17.28;52.41;97660.73;236469;1193;138074;-62
2021/10/21 13:05:54;;;;;;;7.20;3.50;;;;;;;17.30;52.16;97660.42;236525;1193;137974;-62
2021/10/21 13:11:01;;;;;;;6.20;3.10;;;;;;;17.33;52.09;97655.82;236715;1193;139303;-61
2021/10/21 13:16:07;;;;;;;6.10;3.60;;;;;;;17.34;51.78;97656.41;236530;1193;138220;-62
2021/10/21 13:21:11;;;;;;;4.20;3.50;;;;;;;17.36;51.54;97650.77;236299;1193;138684;-62
2021/10/21 13:26:16;;;;;;;7.50;3.60;;;;;;;17.37;51.39;97672.58;236380;1194;138487;-60
2021/10/21 13:31:19;;;;;;;6.30;3.30;;;;;;;17.36;51.26;97688.79;236428;1193;138626;-60
2021/10/21 13:36:22;;;;;;;6.30;3.40;;;;;;;17.36;51.18;97693.30;236596;1193;139075;-61
2021/10/21 13:41:25;;;;;;;4.60;3.30;;;;;;;17.36;51.18;97699.01;236627;1193;138442;-62
2021/10/21 13:46:29;;;;;;;6.10;3.00;;;;;;;17.37;51.05;97709.16;236557;1194;138929;-61
2021/10/21 13:51:32;;;;;;;7.60;2.90;;;;;;;17.37;50.76;97711.31;236567;1193;138207;-61
2021/10/21 13:56:36;;;;;;;14.90;7.20;;;;;;;17.37;50.77;97718.80;236536;1193;138589;-61
2021/10/21 14:01:39;;;;;;;7.20;3.40;;;;;;;17.39;50.60;97731.36;236533;1193;138578;-60
2021/10/21 14:06:43;;;;;;;3.90;2.80;;;;;;;17.37;50.38;97735.14;236211;1193;138504;-60
2021/10/21 14:11:46;;;;;;;5.60;2.70;;;;;;;17.34;50.53;97740.29;236537;1193;138420;-63
2021/10/21 14:16:50;;;;;;;11.00;3.20;;;;;;;17.31;50.42;97733.45;236752;1192;138638;-61
2021/10/21 14:21:53;;;;;;;5.10;3.10;;;;;;;17.27;50.40;97731.35;236337;1193;139128;-62
2021/10/21 14:26:56;;;;;;;5.30;3.10;;;;;;;17.25;50.54;97721.77;236493;1193;138843;-62
2021/10/21 14:31:59;;;;;;;9.00;3.20;;;;;;;17.22;50.50;97727.79;236545;1193;139462;-61
2021/10/21 14:37:03;;;;;;;7.90;3.70;;;;;;;17.22;50.55;97735.91;236522;1193;140102;-62
2021/10/21 14:42:06;;;;;;;129.50;79.90;;;;;;;17.21;50.59;97747.59;236608;1193;138756;-62
2021/10/21 14:47:09;;;;;;;9.70;4.00;;;;;;;17.23;50.48;97759.91;236364;1193;139862;-62
2021/10/21 14:52:12;;;;;;;6.20;3.20;;;;;;;17.24;50.39;97763.05;236611;1193;138441;-62
2021/10/21 14:57:17;;;;;;;6.00;2.50;;;;;;;17.22;50.25;97751.29;236616;1193;138346;-60
2021/10/21 15:02:21;;;;;;;7.30;2.70;;;;;;;17.21;49.71;97760.66;236433;1193;139089;-57
2021/10/21 15:23:16;;;;;;;6.00;1.80;;;;;;;17.15;48.62;97791.11;236538;1193;138541;-61
2021/10/21 15:28:19;;;;;;;10.20;2.10;;;;;;;17.12;48.48;97794.77;236691;1193;138781;-62
2021/10/21 15:33:24;;;;;;;6.10;2.70;;;;;;;17.07;48.34;97790.31;236499;1193;139644;-61
2021/10/21 15:38:38;;;;;;;10.10;2.80;;;;;;;17.02;48.29;97810.96;236544;1193;138358;-61
2021/10/21 15:43:41;;;;;;;12.00;2.70;;;;;;;16.97;48.16;97816.54;236360;1193;138504;-63
2021/10/21 15:49:11;;;;;;;19.00;6.00;;;;;;;16.92;48.15;97830.60;236545;1193;138595;-60
2021/10/21 16:15:22;;;;;;;10.60;2.60;;;;;;;16.65;48.20;97881.38;236400;1193;138824;-62
2021/10/21 16:20:32;;;;;;;8.70;2.90;;;;;;;16.60;48.19;97897.67;236435;1193;139089;-62
2021/10/21 16:30:44;;;;;;;6.90;3.50;;;;;;;16.55;48.17;97900.73;236466;1193;139468;-61
2021/10/21 16:35:47;;;;;;;8.30;3.20;;;;;;;16.53;48.32;97912.02;236513;1193;138546;-61
2021/10/21 16:40:51;;;;;;;8.20;3.20;;;;;;;16.49;48.16;97923.54;236720;1192;138246;-61
2021/10/21 16:45:54;;;;;;;7.20;2.60;;;;;;;16.47;48.19;97925.05;236522;1193;138076;-63
2021/10/21 16:50:58;;;;;;;6.00;2.80;;;;;;;16.42;48.19;97929.48;236034;1193;138272;-60
2021/10/21 16:56:01;;;;;;;8.20;3.20;;;;;;;16.38;48.16;97948.52;236630;1192;138031;-62
2021/10/21 17:01:23;;;;;;;13.10;3.50;;;;;;;16.36;48.09;97960.21;236480;1193;138398;-61
2021/10/21 17:06:27;;;;;;;7.00;2.90;;;;;;;16.34;48.24;97960.02;236103;1193;138346;-61
2021/10/21 17:11:30;;;;;;;10.20;3.00;;;;;;;16.33;48.29;97956.50;236599;1193;139060;-61
2021/10/21 17:16:36;;;;;;;6.70;3.30;;;;;;;16.33;48.06;97965.14;236635;1193;139694;-63
2021/10/21 17:21:40;;;;;;;6.70;2.80;;;;;;;16.31;47.88;97979.85;236418;1187;138822;-62
2021/10/21 17:26:43;;;;;;;9.20;2.60;;;;;;;16.28;47.86;97995.41;236482;1193;139155;-61
2021/10/21 17:31:50;;;;;;;6.00;2.60;;;;;;;16.23;47.61;97996.91;236458;1193;138933;-60
2021/10/21 17:36:56;;;;;;;12.60;2.90;;;;;;;16.19;47.40;98005.38;236354;1193;138400;-63
2021/10/21 17:42:00;;;;;;;12.50;3.10;;;;;;;16.17;47.53;98025.48;236154;1193;138507;-61
2021/10/21 17:47:03;;;;;;;11.00;4.30;;;;;;;16.14;47.49;98036.74;235960;1193;138625;-61
2021/10/21 17:52:07;;;;;;;10.50;3.00;;;;;;;16.10;47.44;98048.02;236552;1193;138625;-62
2021/10/21 17:57:10;;;;;;;4.40;2.50;;;;;;;16.04;47.29;98057.42;236197;1193;139690;-61
2021/10/21 18:02:13;;;;;;;9.90;2.60;;;;;;;15.98;47.40;98056.05;236085;1193;138980;-60
2021/10/21 18:07:17;;;;;;;6.60;1.90;;;;;;;15.94;47.25;98050.04;236462;1193;138384;-62
2021/10/21 18:12:20;;;;;;;8.70;3.10;;;;;;;15.88;47.31;98062.08;236621;1193;138416;-61
2021/10/21 18:17:23;;;;;;;10.20;3.00;;;;;;;15.82;47.33;98073.69;236623;1193;138217;-61
2021/10/21 18:22:28;;;;;;;6.50;2.70;;;;;;;15.76;47.28;98073.21;236536;1193;139143;-61
2021/10/21 18:27:31;;;;;;;10.30;3.50;;;;;;;15.68;47.46;98072.75;236486;1193;138012;-61
2021/10/21 18:32:34;;;;;;;9.80;3.30;;;;;;;15.59;47.59;98076.45;236538;1193;139566;-61
2021/10/21 18:37:38;;;;;;;9.60;2.70;;;;;;;15.54;47.57;98082.53;236282;1193;138327;-62
2021/10/21 18:42:42;;;;;;;6.70;3.10;;;;;;;15.46;47.69;98074.55;236444;1193;138629;-60
2021/10/21 18:47:46;;;;;;;8.60;3.10;;;;;;;15.40;47.54;98091.23;236478;1193;138798;-65
2021/10/21 18:52:50;;;;;;;9.10;2.80;;;;;;;15.34;47.50;98091.43;236558;1193;138737;-62
2021/10/21 18:57:53;;;;;;;16.40;8.80;;;;;;;15.27;47.70;98105.89;236411;1193;139055;-63
2021/10/21 19:02:56;;;;;;;14.40;4.60;;;;;;;15.27;47.80;98105.71;236500;1193;140212;-64
2021/10/21 19:08:00;;;;;;;9.00;3.70;;;;;;;15.21;47.76;98108.60;236477;1193;139811;-61
2021/10/21 19:13:03;;;;;;;143.80;92.30;;;;;;;15.12;47.89;98124.09;236531;1193;140795;-63
2021/10/21 19:18:07;;;;;;;14.60;7.10;;;;;;;15.05;47.92;98126.40;236393;1193;140544;-63
2021/10/21 19:23:12;;;;;;;10.00;4.40;;;;;;;14.98;47.88;98121.58;236622;1193;138018;-63
2021/10/21 19:28:15;;;;;;;7.60;4.30;;;;;;;14.91;47.95;98121.70;236503;1193;138760;-59
2021/10/21 19:33:18;;;;;;;7.20;3.60;;;;;;;14.87;47.85;98128.46;236276;1193;138451;-61
2021/10/21 19:38:22;;;;;;;8.10;3.30;;;;;;;14.80;47.76;98143.07;236630;1193;139442;-59
2021/10/21 19:43:26;;;;;;;5.40;2.50;;;;;;;14.66;47.63;98146.88;236511;1193;138455;-62
2021/10/21 19:48:28;;;;;;;8.90;2.80;;;;;;;14.56;47.50;98165.27;236523;1193;138839;-61
2021/10/21 19:53:33;;;;;;;7.30;3.00;;;;;;;14.46;47.41;98168.13;236542;1193;138750;-62
2021/10/21 19:58:37;;;;;;;6.30;2.90;;;;;;;14.38;47.60;98178.56;236621;1193;138430;-61
2021/10/21 20:03:40;;;;;;;9.90;2.90;;;;;;;14.31;47.71;98181.09;236396;1193;138646;-62
2021/10/21 20:08:44;;;;;;;11.90;3.40;;;;;;;14.25;47.64;98186.14;236482;1193;138468;-62
2021/10/21 20:13:53;;;;;;;6.80;3.10;;;;;;;14.15;47.78;98186.80;236340;1193;138699;-64
2021/10/21 20:18:57;;;;;;;7.20;3.00;;;;;;;14.07;47.72;98190.74;236528;1187;139459;-63
2021/10/21 20:24:00;;;;;;;5.90;3.00;;;;;;;13.98;47.78;98188.00;236402;1193;139147;-62
2021/10/21 20:29:04;;;;;;;5.20;2.60;;;;;;;13.90;47.54;98191.02;236595;1193;138585;-62
2021/10/21 20:34:12;;;;;;;4.80;2.30;;;;;;;13.79;47.71;98195.05;236320;1193;139626;-60
2021/10/21 20:39:15;;;;;;;5.50;2.30;;;;;;;13.69;47.59;98194.70;236564;1193;138718;-62
2021/10/21 20:44:18;;;;;;;8.60;2.20;;;;;;;13.61;47.50;98196.51;236609;1193;138454;-63
2021/10/21 20:49:22;;;;;;;5.40;1.80;;;;;;;13.58;47.54;98198.93;236541;1193;140197;-62
2021/10/21 20:54:26;;;;;;;5.90;1.90;;;;;;;13.53;47.47;98198.07;236526;1193;138551;-61
2021/10/21 20:59:29;;;;;;;93.80;63.30;;;;;;;13.52;47.39;98198.92;236624;1193;138515;-61
2021/10/21 21:04:36;;;;;;;7.70;3.90;;;;;;;13.53;47.38;98202.58;236800;1193;138855;-60
2021/10/21 21:09:39;;;;;;;5.50;1.60;;;;;;;13.49;47.17;98201.60;236473;1193;138501;-62
2021/10/21 21:14:42;;;;;;;5.00;1.90;;;;;;;13.42;46.85;98201.52;236582;1193;138394;-60
2021/10/21 21:19:45;;;;;;;6.10;1.60;;;;;;;13.34;46.58;98205.59;236585;1193;138639;-60
2021/10/21 21:24:49;;;;;;;4.90;1.90;;;;;;;13.28;46.73;98206.17;236451;1193;138699;-62
2021/10/21 21:29:52;;;;;;;4.10;1.60;;;;;;;13.24;46.66;98194.38;236599;1193;138232;-62
2021/10/21 21:34:55;;;;;;;4.10;1.30;;;;;;;13.18;46.63;98194.50;236620;1193;139098;-61
2021/10/21 21:39:58;;;;;;;3.10;1.30;;;;;;;13.12;46.71;98185.22;236719;1193;138573;-64
2021/10/21 21:45:02;;;;;;;3.90;1.20;;;;;;;13.10;46.42;98185.90;237118;1192;139209;-60
2021/10/21 21:50:05;;;;;;;4.00;1.10;;;;;;;13.06;46.61;98178.10;236743;1192;139186;-60
2021/10/21 21:55:10;;;;;;;6.40;1.20;;;;;;;13.05;46.44;98176.80;236462;1192;138555;-63
2021/10/21 22:00:15;;;;;;;2.60;1.20;;;;;;;13.04;46.45;98173.41;236629;1193;139874;-59
2021/10/21 22:05:18;;;;;;;6.90;1.10;;;;;;;13.01;46.37;98174.55;236624;1193;138199;-63
2021/10/21 22:10:21;;;;;;;6.60;2.00;;;;;;;13.00;46.47;98184.28;236442;1193;138356;-62
2021/10/21 22:15:24;;;;;;;4.10;1.10;;;;;;;13.00;46.28;98192.64;236540;1193;138572;-62
2021/10/21 22:20:28;;;;;;;4.40;1.00;;;;;;;13.00;46.23;98196.58;236514;1193;139226;-62
2021/10/21 22:25:31;;;;;;;3.10;0.90;;;;;;;12.99;45.90;98211.37;236751;1192;139595;-60
2021/10/21 22:30:35;;;;;;;4.40;0.90;;;;;;;12.98;46.05;98218.08;236610;1193;138791;-62
2021/10/21 22:35:40;;;;;;;2.00;0.90;;;;;;;12.96;45.95;98217.36;236662;1193;138574;-64
2021/10/21 22:40:44;;;;;;;5.80;0.80;;;;;;;12.92;46.05;98209.30;236674;1193;138363;-61
2021/10/21 22:45:48;;;;;;;3.00;1.00;;;;;;;12.87;45.65;98209.80;236571;1193;138584;-59
2021/10/21 22:50:52;;;;;;;2.80;0.80;;;;;;;12.85;45.82;98212.66;236478;1193;137861;-61
2021/10/21 22:55:55;;;;;;;8.80;0.80;;;;;;;12.84;45.78;98211.14;236553;1195;138718;-61
2021/10/21 23:01:02;;;;;;;2.40;1.00;;;;;;;12.82;45.80;98215.95;236581;1186;138274;-64
2021/10/21 23:06:06;;;;;;;2.60;0.90;;;;;;;12.80;45.87;98216.61;236625;1193;138476;-62
2021/10/21 23:11:10;;;;;;;3.90;1.20;;;;;;;12.76;45.71;98215.51;236584;1193;138744;-60
2021/10/21 23:16:14;;;;;;;8.90;0.90;;;;;;;12.73;45.64;98223.75;236583;1193;139075;-60
2021/10/21 23:21:17;;;;;;;1.40;0.60;;;;;;;12.72;45.65;98225.26;236299;1193;138696;-60
2021/10/21 23:26:20;;;;;;;2.90;0.90;;;;;;;12.72;45.66;98228.35;236553;1193;138416;-62
2021/10/21 23:31:23;;;;;;;2.50;0.90;;;;;;;12.75;45.47;98230.73;236524;1193;138940;-62
2021/10/21 23:36:26;;;;;;;2.50;0.80;;;;;;;12.75;45.48;98226.05;236660;1193;138771;-61
2021/10/21 23:41:30;;;;;;;6.40;0.90;;;;;;;12.73;45.52;98219.48;236589;1193;161337;-62
2021/10/21 23:46:33;;;;;;;3.90;1.00;;;;;;;12.71;45.49;98225.85;236630;1193;139395;-60
2021/10/21 23:51:37;;;;;;;5.30;1.10;;;;;;;12.73;45.21;98222.20;236413;1193;138719;-60